Time;durP1;ratioP1;P1;durP2;ratioP2;P2;SDS_P1;SDS_P2;PMS_P1;PMS_P2;Temp;Humidity;BMP_temperature;BMP_pressure;BME280_temperature;BME280_humidity;BME280_pressure;Samples;Min_cycle;Max_cycle;Signal;HPM_P1;HPM_P2
2023/06/16 00:02:12;;;;;;;4.75;4.28;;;14.80;99.90;;;;;;5014376;28;20049;-80
2023/06/16 00:04:40;;;;;;;6.25;4.30;;;14.70;99.90;;;;;;5008853;28;20032;-80
2023/06/16 00:07:06;;;;;;;5.85;4.10;;;14.70;99.90;;;;;;5056698;28;20032;-80
2023/06/16 00:09:32;;;;;;;6.75;4.32;;;14.70;99.90;;;;;;5038127;28;20028;-80
2023/06/16 00:11:58;;;;;;;5.45;4.03;;;14.70;99.90;;;;;;5052226;28;20043;-80
2023/06/16 00:14:23;;;;;;;7.40;4.00;;;14.60;99.90;;;;;;5035458;28;20118;-80
2023/06/16 00:16:49;;;;;;;7.32;3.72;;;14.60;99.90;;;;;;5028106;28;20036;-80
2023/06/16 00:19:15;;;;;;;4.88;4.30;;;14.60;99.90;;;;;;5035361;28;20275;-81
2023/06/16 00:21:44;;;;;;;5.95;4.15;;;14.60;99.90;;;;;;5038903;28;20507;-81
2023/06/16 00:24:10;;;;;;;5.63;4.40;;;14.50;99.90;;;;;;5042024;28;20028;-81
2023/06/16 00:26:36;;;;;;;6.72;4.25;;;14.60;99.90;;;;;;5050934;28;20504;-80
2023/06/16 00:29:03;;;;;;;5.10;4.40;;;14.50;99.90;;;;;;5051108;28;20036;-80
2023/06/16 00:31:32;;;;;;;6.75;4.13;;;14.40;99.90;;;;;;5042415;28;20025;-80
2023/06/16 00:33:59;;;;;;;6.13;3.78;;;14.40;99.90;;;;;;5056909;28;20032;-81
2023/06/16 00:36:25;;;;;;;5.15;3.90;;;14.30;99.90;;;;;;5037082;28;20024;-80
2023/06/16 00:38:51;;;;;;;4.72;4.18;;;14.30;99.90;;;;;;5050479;28;20037;-80
2023/06/16 00:41:16;;;;;;;4.40;3.78;;;14.10;99.90;;;;;;5037922;28;20142;-80
2023/06/16 00:43:42;;;;;;;5.35;4.22;;;14.10;99.90;;;;;;5023425;28;20151;-80
2023/06/16 00:46:11;;;;;;;4.70;4.10;;;14.00;99.90;;;;;;5035907;28;20055;-79
2023/06/16 00:48:37;;;;;;;4.93;4.28;;;13.90;99.90;;;;;;5044168;28;20033;-80
2023/06/16 00:51:03;;;;;;;6.07;4.47;;;13.90;99.90;;;;;;5037231;28;20033;-80
2023/06/16 00:53:31;;;;;;;5.07;4.13;;;13.80;99.90;;;;;;5036847;28;20028;-80
2023/06/16 00:55:57;;;;;;;5.47;4.25;;;13.70;99.90;;;;;;5028374;28;20059;-80
2023/06/16 00:58:24;;;;;;;5.05;4.55;;;13.70;99.90;;;;;;5050130;28;20028;-80
2023/06/16 01:00:51;;;;;;;5.95;4.70;;;13.70;99.90;;;;;;5022504;28;20372;-80
2023/06/16 01:03:17;;;;;;;5.90;4.72;;;13.70;99.90;;;;;;5047930;28;20067;-80
2023/06/16 01:05:43;;;;;;;6.20;5.00;;;13.70;99.90;;;;;;5026307;28;20433;-80
2023/06/16 01:08:34;;;;;;;4.68;4.18;;;13.80;99.90;;;;;;5028300;28;20033;-80
2023/06/16 01:11:11;;;;;;;7.95;4.72;;;13.80;99.90;;;;;;5043435;28;20516;-80
2023/06/16 01:13:45;;;;;;;6.13;5.10;;;13.90;99.90;;;;;;5056980;28;20029;-80
2023/06/16 01:16:11;;;;;;;6.72;4.90;;;13.80;99.90;;;;;;5026731;28;20083;-80
2023/06/16 01:18:40;;;;;;;6.45;5.25;;;13.80;99.90;;;;;;5030232;28;20060;-80
2023/06/16 01:21:26;;;;;;;5.63;4.88;;;13.80;99.90;;;;;;5057194;28;20027;-80
2023/06/16 01:24:05;;;;;;;7.40;4.78;;;13.80;99.90;;;;;;5027063;28;20033;-82
2023/06/16 01:26:34;;;;;;;6.07;5.07;;;13.80;99.90;;;;;;5053189;28;20029;-82
2023/06/16 01:29:02;;;;;;;5.75;4.60;;;13.80;99.90;;;;;;5059409;28;20107;-80
2023/06/16 01:31:31;;;;;;;7.78;4.65;;;13.70;99.90;;;;;;5034651;28;20036;-82
2023/06/16 01:33:58;;;;;;;8.40;4.60;;;13.70;99.90;;;;;;5046929;28;20502;-80
2023/06/16 01:36:25;;;;;;;5.38;4.28;;;13.70;99.90;;;;;;5051600;28;20229;-79
2023/06/16 01:38:51;;;;;;;5.97;4.50;;;13.50;99.90;;;;;;5034630;28;20029;-80
2023/06/16 01:41:19;;;;;;;7.18;4.90;;;13.50;99.90;;;;;;5024878;28;20025;-82
2023/06/16 01:43:45;;;;;;;6.07;4.40;;;13.40;99.90;;;;;;5033389;28;20041;-82
2023/06/16 01:46:13;;;;;;;6.43;4.80;;;13.30;99.90;;;;;;5040421;28;20028;-82
2023/06/16 01:48:38;;;;;;;4.93;4.18;;;13.30;99.90;;;;;;5028967;28;20115;-81
2023/06/16 01:51:04;;;;;;;6.10;4.55;;;13.20;99.90;;;;;;5050738;28;20119;-81
2023/06/16 01:53:30;;;;;;;10.05;5.05;;;13.10;99.90;;;;;;5033876;28;20072;-82
2023/06/16 01:55:55;;;;;;;7.45;4.85;;;13.10;99.90;;;;;;5056244;28;20024;-82
2023/06/16 01:58:24;;;;;;;6.05;4.47;;;13.10;99.90;;;;;;5037640;28;20051;-82
2023/06/16 02:00:58;;;;;;;6.57;4.57;;;13.00;99.90;;;;;;5032331;28;20033;-81
2023/06/16 02:03:31;;;;;;;6.60;4.97;;;13.00;99.90;;;;;;5052683;28;20124;-82
2023/06/16 02:06:02;;;;;;;4.85;4.30;;;12.90;99.90;;;;;;5059459;28;20459;-82
2023/06/16 02:08:31;;;;;;;5.30;4.77;;;12.90;99.90;;;;;;5053809;28;20496;-82
2023/06/16 02:10:57;;;;;;;6.13;4.68;;;12.80;99.90;;;;;;5040573;28;20543;-82
2023/06/16 02:13:23;;;;;;;5.97;4.82;;;12.80;99.90;;;;;;5051241;28;20028;-81
2023/06/16 02:15:49;;;;;;;12.20;5.07;;;12.70;99.90;;;;;;5040233;28;20043;-82
2023/06/16 02:18:15;;;;;;;10.95;5.22;;;12.70;99.90;;;;;;5036322;28;20108;-81
2023/06/16 02:20:40;;;;;;;5.72;5.10;;;12.60;99.90;;;;;;5046720;28;20476;-82
2023/06/16 02:23:06;;;;;;;9.20;5.32;;;12.60;99.90;;;;;;5030494;28;20048;-82
2023/06/16 02:25:32;;;;;;;7.38;5.05;;;12.50;99.90;;;;;;5035480;28;20029;-83
2023/06/16 02:27:57;;;;;;;7.85;5.13;;;12.50;99.90;;;;;;5044557;28;20040;-82
2023/06/16 02:30:23;;;;;;;5.80;5.03;;;12.40;99.90;;;;;;5055967;28;20052;-82
2023/06/16 02:32:49;;;;;;;7.28;5.68;;;12.30;99.90;;;;;;5058829;28;20024;-81
2023/06/16 02:35:15;;;;;;;11.27;5.22;;;12.40;99.90;;;;;;5056763;28;20024;-81
2023/06/16 02:37:41;;;;;;;6.55;5.20;;;12.30;99.90;;;;;;5032544;28;20039;-82
2023/06/16 02:40:08;;;;;;;11.18;5.13;;;12.20;99.90;;;;;;5050755;28;20076;-82
2023/06/16 02:42:34;;;;;;;8.70;4.95;;;12.20;99.90;;;;;;5041007;28;20036;-82
2023/06/16 02:45:00;;;;;;;5.65;5.05;;;12.20;99.90;;;;;;5035824;28;20115;-81
2023/06/16 02:47:26;;;;;;;8.60;5.45;;;12.20;99.90;;;;;;5055534;28;20241;-82
2023/06/16 02:49:54;;;;;;;7.25;5.07;;;12.10;99.90;;;;;;5059633;28;20613;-82
2023/06/16 02:52:20;;;;;;;6.05;5.38;;;12.10;99.90;;;;;;5053168;28;20078;-82
2023/06/16 02:54:46;;;;;;;6.95;5.55;;;12.10;99.90;;;;;;5031210;28;20472;-81
2023/06/16 02:57:12;;;;;;;6.20;5.60;;;12.10;99.90;;;;;;5040054;28;20024;-82
2023/06/16 02:59:37;;;;;;;7.70;5.57;;;12.10;99.90;;;;;;5050483;28;20043;-82
2023/06/16 03:02:03;;;;;;;5.55;5.00;;;12.00;99.90;;;;;;5032242;28;20036;-81
2023/06/16 03:04:29;;;;;;;7.05;4.90;;;12.10;99.90;;;;;;5051603;28;20127;-81
2023/06/16 03:07:02;;;;;;;6.80;4.97;;;12.00;99.90;;;;;;5038775;28;20044;-81
2023/06/16 03:09:28;;;;;;;6.55;4.63;;;12.00;99.90;;;;;;5057031;28;20040;-83
2023/06/16 03:11:55;;;;;;;6.90;5.20;;;12.00;99.90;;;;;;5031628;28;20115;-82
2023/06/16 03:14:21;;;;;;;7.35;5.30;;;12.00;99.90;;;;;;5034352;28;20032;-82
2023/06/16 03:16:50;;;;;;;7.20;4.97;;;12.00;99.90;;;;;;5058108;28;20725;-83
2023/06/16 03:19:18;;;;;;;7.30;5.00;;;12.00;99.90;;;;;;5049512;28;20515;-82
2023/06/16 03:21:44;;;;;;;5.90;4.78;;;12.10;99.90;;;;;;5037759;28;20021;-81
2023/06/16 03:24:13;;;;;;;6.35;4.78;;;12.10;99.90;;;;;;5050783;28;20246;-82
2023/06/16 03:26:43;;;;;;;10.10;4.63;;;12.00;99.90;;;;;;5041910;28;20032;-81
2023/06/16 03:29:09;;;;;;;6.63;4.75;;;12.10;99.90;;;;;;5036077;28;20025;-82
2023/06/16 03:31:35;;;;;;;6.18;4.57;;;12.10;99.90;;;;;;5041877;28;20051;-82
2023/06/16 03:34:01;;;;;;;6.28;4.90;;;12.00;99.90;;;;;;5063823;28;20025;-82
2023/06/16 03:36:27;;;;;;;7.13;5.28;;;12.00;99.90;;;;;;5036719;28;20037;-82
2023/06/16 03:38:53;;;;;;;4.82;4.30;;;12.00;99.90;;;;;;5052753;28;20028;-81
2023/06/16 03:41:19;;;;;;;6.93;4.80;;;12.00;99.90;;;;;;5029234;28;20037;-82
2023/06/16 03:43:44;;;;;;;7.35;4.78;;;12.00;99.90;;;;;;5035008;28;20060;-81
2023/06/16 03:46:10;;;;;;;7.38;4.70;;;12.00;99.90;;;;;;5050932;28;20025;-81
2023/06/16 03:48:36;;;;;;;5.47;4.68;;;12.00;99.90;;;;;;5042642;28;20194;-82
2023/06/16 03:51:01;;;;;;;5.30;4.80;;;11.90;99.90;;;;;;5051222;28;20060;-82
2023/06/16 03:53:28;;;;;;;6.05;4.80;;;11.90;99.90;;;;;;5056844;28;20040;-81
2023/06/16 03:55:53;;;;;;;6.63;4.35;;;11.90;99.90;;;;;;5043157;28;20024;-81
2023/06/16 03:58:20;;;;;;;6.38;4.30;;;11.90;99.90;;;;;;5034903;28;20503;-82
2023/06/16 04:00:46;;;;;;;5.57;4.25;;;11.90;99.90;;;;;;5031878;28;20032;-82
2023/06/16 04:03:12;;;;;;;8.35;4.95;;;11.90;99.90;;;;;;5052103;28;20036;-82
2023/06/16 04:05:38;;;;;;;5.55;4.45;;;11.90;99.90;;;;;;5043663;28;20033;-82
2023/06/16 04:08:03;;;;;;;8.60;4.65;;;11.90;99.90;;;;;;5053042;28;20741;-82
2023/06/16 04:10:29;;;;;;;6.60;4.35;;;11.90;99.90;;;;;;5050428;28;20031;-82
2023/06/16 04:12:55;;;;;;;4.75;4.18;;;11.90;99.90;;;;;;5037478;28;20110;-82
2023/06/16 04:15:20;;;;;;;5.00;4.03;;;11.90;99.90;;;;;;5040735;28;20455;-82
2023/06/16 04:17:46;;;;;;;7.18;4.88;;;12.00;99.90;;;;;;5056000;28;20032;-82
2023/06/16 04:20:12;;;;;;;6.40;4.55;;;12.00;99.90;;;;;;5056102;28;20044;-82
2023/06/16 04:22:39;;;;;;;5.57;4.15;;;12.00;99.90;;;;;;5031141;28;20109;-82
2023/06/16 04:25:06;;;;;;;5.70;4.25;;;12.00;99.90;;;;;;5030859;28;20498;-82
2023/06/16 04:27:33;;;;;;;10.13;4.25;;;12.10;99.90;;;;;;5029854;28;20056;-82
2023/06/16 04:30:02;;;;;;;5.15;4.07;;;12.10;99.90;;;;;;5037918;28;20104;-82
2023/06/16 04:32:28;;;;;;;5.97;4.75;;;12.10;99.90;;;;;;5045044;28;20866;-82
2023/06/16 04:34:56;;;;;;;7.90;4.70;;;12.10;99.90;;;;;;5042788;28;20107;-81
2023/06/16 04:37:22;;;;;;;6.65;4.80;;;12.10;99.90;;;;;;5039097;28;20460;-82
2023/06/16 04:39:47;;;;;;;6.25;4.65;;;12.10;99.90;;;;;;5045200;28;20110;-82
2023/06/16 04:42:13;;;;;;;6.05;4.40;;;12.10;99.90;;;;;;5030021;28;20415;-82
2023/06/16 04:44:40;;;;;;;5.85;4.15;;;12.10;99.90;;;;;;5049071;28;20024;-82
2023/06/16 04:47:07;;;;;;;5.95;4.57;;;12.10;99.90;;;;;;5058680;28;20033;-82
2023/06/16 04:49:32;;;;;;;7.38;5.05;;;12.10;99.90;;;;;;5040197;28;20031;-82
2023/06/16 04:51:58;;;;;;;6.18;4.80;;;12.10;99.90;;;;;;5042728;28;20058;-82
2023/06/16 04:54:24;;;;;;;7.43;5.00;;;12.20;99.90;;;;;;5050095;28;20024;-81
2023/06/16 04:56:50;;;;;;;5.97;5.20;;;12.20;99.90;;;;;;5026983;28;20282;-83
2023/06/16 04:59:16;;;;;;;7.40;4.68;;;12.30;99.90;;;;;;5048188;28;20479;-82
2023/06/16 05:01:41;;;;;;;6.10;4.85;;;12.30;99.90;;;;;;5059723;28;20530;-82
2023/06/16 05:04:08;;;;;;;5.30;4.50;;;12.40;99.90;;;;;;5029717;28;20547;-82
2023/06/16 05:06:36;;;;;;;6.35;4.90;;;12.50;99.90;;;;;;5042413;28;20055;-82
2023/06/16 05:09:04;;;;;;;5.65;4.40;;;12.60;99.90;;;;;;5016416;28;20496;-82
2023/06/16 05:11:30;;;;;;;5.65;4.90;;;12.70;99.90;;;;;;5033838;28;20063;-82
2023/06/16 05:13:55;;;;;;;7.63;4.22;;;12.80;99.90;;;;;;5034890;28;20029;-82
2023/06/16 05:16:21;;;;;;;6.00;3.92;;;12.90;99.90;;;;;;5026779;28;20100;-81
2023/06/16 05:18:46;;;;;;;6.75;4.15;;;13.00;99.90;;;;;;5017049;28;20025;-82
2023/06/16 05:21:12;;;;;;;6.63;4.30;;;13.10;99.90;;;;;;5024039;28;20384;-82
2023/06/16 05:23:38;;;;;;;6.15;4.03;;;13.20;99.90;;;;;;5027407;28;20045;-82
2023/06/16 05:26:04;;;;;;;4.55;3.80;;;13.30;99.90;;;;;;5006522;28;20029;-81
2023/06/16 05:28:29;;;;;;;4.90;4.07;;;13.40;99.90;;;;;;5034773;28;20037;-82
2023/06/16 05:30:55;;;;;;;5.55;3.88;;;13.50;99.90;;;;;;5027163;28;20494;-82
2023/06/16 05:33:20;;;;;;;6.22;3.90;;;13.60;99.90;;;;;;5013499;28;20036;-82
2023/06/16 05:35:46;;;;;;;7.07;3.53;;;13.70;99.90;;;;;;5037431;28;20029;-81
2023/06/16 05:38:12;;;;;;;5.97;3.60;;;13.80;99.90;;;;;;5017737;28;20028;-82
2023/06/16 05:40:37;;;;;;;5.70;3.78;;;13.90;99.90;;;;;;5026889;28;20425;-82
2023/06/16 05:43:03;;;;;;;4.13;3.53;;;14.00;99.90;;;;;;5018859;28;20044;-82
2023/06/16 05:45:28;;;;;;;6.57;3.70;;;14.10;99.90;;;;;;5036849;28;20612;-82
2023/06/16 05:47:54;;;;;;;6.70;3.70;;;14.20;99.90;;;;;;5010782;28;20040;-82
2023/06/16 05:50:20;;;;;;;5.68;4.07;;;14.40;99.90;;;;;;5033932;28;20025;-82
2023/06/16 05:52:45;;;;;;;4.10;3.50;;;14.50;99.90;;;;;;5018142;28;20490;-81
2023/06/16 05:55:11;;;;;;;4.22;3.63;;;14.60;99.90;;;;;;5016393;28;20130;-82
2023/06/16 05:57:37;;;;;;;4.95;3.35;;;14.70;99.90;;;;;;5014166;28;20198;-81
2023/06/16 06:00:05;;;;;;;5.35;3.63;;;14.80;99.90;;;;;;5013342;28;20080;-82
2023/06/16 06:02:31;;;;;;;4.25;3.45;;;14.90;99.90;;;;;;5019573;28;20388;-82
2023/06/16 06:04:56;;;;;;;5.45;3.90;;;15.00;99.90;;;;;;5048783;22;21004;-72
2023/06/16 06:07:22;;;;;;;15.18;10.00;;;15.10;99.90;;;;;;5045620;28;20127;-72
2023/06/16 06:09:48;;;;;;;46.53;25.67;;;15.20;99.90;;;;;;5044577;28;20479;-72
2023/06/16 06:12:13;;;;;;;8.63;5.65;;;15.30;99.90;;;;;;5031062;28;20027;-72
2023/06/16 06:14:39;;;;;;;4.47;3.80;;;15.40;99.90;;;;;;5040655;28;20051;-72
2023/06/16 06:17:05;;;;;;;4.82;3.67;;;15.50;99.90;;;;;;5037193;28;20047;-71
2023/06/16 06:19:31;;;;;;;6.60;4.25;;;15.60;99.90;;;;;;5020846;28;20052;-71
2023/06/16 06:21:56;;;;;;;4.47;3.55;;;15.80;99.90;;;;;;5019206;28;20116;-72
2023/06/16 06:24:22;;;;;;;5.68;4.22;;;16.00;99.90;;;;;;5021495;28;20041;-71
2023/06/16 06:26:48;;;;;;;67.25;36.67;;;16.10;99.90;;;;;;5019527;28;20782;-71
2023/06/16 06:29:17;;;;;;;9.77;6.47;;;16.20;99.90;;;;;;5018402;28;20133;-71
2023/06/16 06:31:43;;;;;;;8.68;4.20;;;16.30;99.90;;;;;;5022258;28;20025;-71
2023/06/16 06:34:09;;;;;;;4.80;4.10;;;16.50;99.90;;;;;;5027514;28;20029;-71
2023/06/16 06:36:39;;;;;;;5.68;3.67;;;16.60;99.90;;;;;;5034524;28;20048;-71
2023/06/16 06:39:05;;;;;;;6.10;3.58;;;16.70;99.90;;;;;;5051632;28;20041;-72
2023/06/16 06:41:31;;;;;;;175.25;85.03;;;16.80;99.90;;;;;;5046853;28;20071;-71
2023/06/16 06:43:56;;;;;;;14.45;8.13;;;16.90;99.90;;;;;;5048679;28;20879;-71
2023/06/16 06:46:22;;;;;;;22.48;9.10;;;17.00;99.90;;;;;;5048818;28;20020;-71
2023/06/16 06:48:48;;;;;;;7.53;5.00;;;17.10;99.90;;;;;;5052525;28;20040;-72
2023/06/16 06:51:13;;;;;;;12.02;4.70;;;17.20;99.90;;;;;;4691172;28;10000035;-71
2023/06/16 06:53:40;;;;;;;6.53;4.00;;;17.30;99.90;;;;;;5045955;28;20029;-72
2023/06/16 06:56:05;;;;;;;16.58;9.25;;;17.40;99.90;;;;;;5041020;28;20036;-72
2023/06/16 06:58:32;;;;;;;5.65;3.80;;;17.40;99.40;;;;;;5043021;28;20029;-71
2023/06/16 07:00:58;;;;;;;8.98;3.72;;;17.60;99.90;;;;;;5026318;28;20044;-71
2023/06/16 07:03:24;;;;;;;6.07;4.00;;;17.80;99.90;;;;;;5031969;28;20041;-71
2023/06/16 07:05:50;;;;;;;4.53;2.80;;;18.00;99.90;;;;;;5024828;28;20075;-72
2023/06/16 07:08:15;;;;;;;8.18;3.72;;;18.10;99.90;;;;;;5029337;28;20041;-71
2023/06/16 07:10:41;;;;;;;4.35;2.78;;;18.20;99.20;;;;;;5034623;28;20048;-72
2023/06/16 07:13:07;;;;;;;5.10;3.42;;;18.40;99.50;;;;;;5028827;28;20129;-72
2023/06/16 07:15:32;;;;;;;3.58;2.90;;;18.40;99.00;;;;;;5040346;28;20861;-71
2023/06/16 07:17:58;;;;;;;5.68;3.83;;;18.50;99.30;;;;;;5033442;28;20038;-72
2023/06/16 07:20:24;;;;;;;6.47;3.15;;;18.60;98.90;;;;;;5047178;28;20021;-71
2023/06/16 07:22:49;;;;;;;9.93;4.63;;;18.80;99.10;;;;;;5020161;28;20507;-72
2023/06/16 07:25:16;;;;;;;5.53;3.15;;;19.00;98.20;;;;;;5021681;28;20505;-75
2023/06/16 07:27:43;;;;;;;5.25;2.83;;;19.30;96.60;;;;;;5023899;28;20112;-73
2023/06/16 07:30:09;;;;;;;5.07;2.78;;;20.00;96.80;;;;;;5039177;28;20024;-74
2023/06/16 07:32:39;;;;;;;3.10;2.65;;;21.90;94.50;;;;;;5034752;28;20044;-76
2023/06/16 07:35:06;;;;;;;4.85;2.70;;;24.70;88.50;;;;;;5035064;28;20032;-73
2023/06/16 07:37:32;;;;;;;3.35;2.20;;;27.80;77.80;;;;;;5020002;28;20029;-76
2023/06/16 07:39:58;;;;;;;4.35;2.10;;;30.10;68.20;;;;;;5020799;28;20024;-78
2023/06/16 07:42:24;;;;;;;3.90;2.30;;;31.70;58.80;;;;;;5034569;28;20066;-75
2023/06/16 07:44:50;;;;;;;3.92;2.20;;;33.70;53.00;;;;;;5033955;28;20419;-76
2023/06/16 07:47:15;;;;;;;3.92;1.88;;;35.10;48.20;;;;;;5037568;28;20092;-76
2023/06/16 07:49:41;;;;;;;3.47;1.85;;;36.10;44.30;;;;;;5048441;28;20127;-74
2023/06/16 07:52:07;;;;;;;2.88;2.00;;;36.90;39.10;;;;;;5042010;28;20404;-72
2023/06/16 07:54:33;;;;;;;4.25;2.00;;;37.60;38.00;;;;;;5047640;28;20020;-77
2023/06/16 07:56:58;;;;;;;4.10;1.75;;;38.40;35.90;;;;;;5033605;28;20056;-77
2023/06/16 07:59:24;;;;;;;2.90;1.80;;;39.00;35.20;;;;;;5047544;28;20103;-79
2023/06/16 08:01:50;;;;;;;4.00;1.77;;;39.60;33.80;;;;;;5049199;28;20025;-75
2023/06/16 08:04:16;;;;;;;2.15;1.50;;;39.80;31.10;;;;;;5053344;28;20499;-76
2023/06/16 08:06:41;;;;;;;1.92;1.55;;;40.10;32.20;;;;;;5038310;28;20083;-75
2023/06/16 08:09:07;;;;;;;3.58;1.73;;;39.80;31.10;;;;;;5044969;28;20086;-73
2023/06/16 08:11:36;;;;;;;3.45;1.70;;;40.70;30.00;;;;;;5052280;28;20025;-76
2023/06/16 08:14:02;;;;;;;3.67;1.75;;;40.00;28.40;;;;;;5039254;28;20040;-73
2023/06/16 08:16:28;;;;;;;2.90;1.83;;;40.00;28.50;;;;;;5038920;28;20028;-73
2023/06/16 08:18:57;;;;;;;2.58;1.83;;;40.20;30.00;;;;;;5043720;28;20036;-71
2023/06/16 08:21:23;;;;;;;4.18;1.70;;;40.40;27.70;;;;;;5047200;28;20043;-81
2023/06/16 08:23:50;;;;;;;3.28;1.65;;;40.30;28.80;;;;;;5041472;28;20054;-70
2023/06/16 08:26:16;;;;;;;4.28;1.70;;;39.70;27.90;;;;;;5038268;28;20111;-70
2023/06/16 08:28:42;;;;;;;4.15;1.63;;;39.90;29.30;;;;;;5030346;28;20053;-69
2023/06/16 08:31:08;;;;;;;3.40;1.67;;;40.50;28.60;;;;;;5026497;28;20161;-69
2023/06/16 08:33:34;;;;;;;4.38;1.60;;;41.50;28.20;;;;;;5031906;28;20031;-69
2023/06/16 08:36:00;;;;;;;3.42;1.42;;;42.20;27.20;;;;;;5022116;28;20665;-69
2023/06/16 08:38:27;;;;;;;4.18;1.58;;;42.10;27.20;;;;;;5031336;28;20055;-67
2023/06/16 08:40:55;;;;;;;4.00;1.70;;;42.20;26.70;;;;;;5018629;28;20036;-76
2023/06/16 08:43:22;;;;;;;3.80;1.60;;;41.30;28.90;;;;;;5046865;28;20044;-67
2023/06/16 08:45:50;;;;;;;3.60;1.30;;;41.40;27.10;;;;;;5051017;28;20028;-68
2023/06/16 08:48:16;;;;;;;3.10;1.58;;;42.00;27.00;;;;;;5033709;28;20124;-68
2023/06/16 08:50:41;;;;;;;5.80;1.67;;;41.70;26.00;;;;;;5033336;28;20131;-69
2023/06/16 08:53:10;;;;;;;3.63;1.50;;;42.40;26.40;;;;;;5035672;28;20021;-69
2023/06/16 08:55:40;;;;;;;3.21;1.93;;;42.50;26.10;;;;;;4687725;28;10001275;-69
2023/06/16 08:58:08;;;;;;;2.20;1.52;;;42.70;26.10;;;;;;5039680;28;20021;-69
2023/06/16 09:00:34;;;;;;;3.03;1.40;;;43.10;25.80;;;;;;5046807;28;20093;-70
2023/06/16 09:03:00;;;;;;;3.63;1.60;;;43.60;27.60;;;;;;5027064;28;20040;-69
2023/06/16 09:05:26;;;;;;;3.85;1.80;;;43.10;24.80;;;;;;5041814;28;20144;-69
2023/06/16 09:07:52;;;;;;;2.53;1.80;;;43.60;25.80;;;;;;5034472;28;20048;-70
2023/06/16 09:10:18;;;;;;;2.88;1.65;;;42.50;26.10;;;;;;5034206;28;20559;-69
2023/06/16 09:12:50;;;;;;;3.42;1.73;;;43.30;25.30;;;;;;5047179;28;20032;-69
2023/06/16 09:15:15;;;;;;;1.58;1.40;;;42.30;24.80;;;;;;5026503;28;20047;-69
2023/06/16 09:17:41;;;;;;;3.40;1.33;;;42.70;25.10;;;;;;5043335;28;20396;-69
2023/06/16 09:20:14;;;;;;;3.53;1.25;;;42.60;26.00;;;;;;5035942;28;20105;-69
2023/06/16 09:22:40;;;;;;;2.30;1.60;;;43.90;26.40;;;;;;5049727;28;20036;-70
2023/06/16 09:25:09;;;;;;;3.22;1.85;;;44.80;26.30;;;;;;5050747;28;20024;-68
2023/06/16 09:27:45;;;;;;;2.03;1.58;;;43.70;25.20;;;;;;5023630;28;20218;-68
2023/06/16 09:30:18;;;;;;;2.70;1.40;;;43.30;24.50;;;;;;5037536;28;20025;-67
2023/06/16 09:32:54;;;;;;;3.35;1.58;;;43.40;23.90;;;;;;5040060;28;20031;-68
2023/06/16 09:35:25;;;;;;;4.45;1.60;;;43.70;23.80;;;;;;5023218;28;20036;-68
2023/06/16 09:37:54;;;;;;;2.72;1.38;;;44.00;24.10;;;;;;5054608;28;20025;-71
2023/06/16 09:40:24;;;;;;;2.75;1.75;;;44.60;24.60;;;;;;5053164;28;20027;-70
2023/06/16 09:42:51;;;;;;;2.42;1.45;;;45.10;25.00;;;;;;5054378;28;20086;-68
2023/06/16 09:45:17;;;;;;;3.38;1.50;;;44.60;23.80;;;;;;5051806;28;20032;-68
2023/06/16 09:47:48;;;;;;;2.50;1.50;;;45.30;24.70;;;;;;5056911;28;20035;-68
2023/06/16 09:50:15;;;;;;;2.65;1.52;;;45.90;25.40;;;;;;5046601;28;20024;-68
2023/06/16 09:52:43;;;;;;;2.25;1.52;;;45.40;23.70;;;;;;5056333;28;20058;-68
2023/06/16 09:55:13;;;;;;;1.98;1.60;;;44.90;23.80;;;;;;5029858;28;20197;-67
2023/06/16 09:57:40;;;;;;;4.07;1.52;;;44.50;23.00;;;;;;5050185;28;20063;-68
2023/06/16 10:00:15;;;;;;;4.72;1.60;;;45.00;22.70;;;;;;5046138;28;20033;-68
2023/06/16 10:02:43;;;;;;;3.35;1.77;;;44.80;23.70;;;;;;5050019;28;20032;-68
2023/06/16 10:05:13;;;;;;;2.55;1.60;;;43.30;23.20;;;;;;5050627;28;20045;-68
2023/06/16 10:07:41;;;;;;;3.10;1.60;;;43.90;25.90;;;;;;5045738;28;20047;-67
2023/06/16 10:10:10;;;;;;;4.30;1.70;;;44.80;25.40;;;;;;5056127;28;20255;-68
2023/06/16 10:12:37;;;;;;;2.27;1.57;;;45.00;24.10;;;;;;5037897;28;20846;-67
2023/06/16 10:15:03;;;;;;;4.13;1.60;;;45.00;23.30;;;;;;5048444;28;20814;-67
2023/06/16 10:17:32;;;;;;;2.92;1.92;;;44.90;24.50;;;;;;5051202;28;20723;-67
2023/06/16 10:19:58;;;;;;;3.05;1.73;;;43.80;23.80;;;;;;5054152;28;20534;-67
2023/06/16 10:22:25;;;;;;;3.35;1.45;;;44.30;25.70;;;;;;5037973;28;20032;-68
2023/06/16 10:24:51;;;;;;;2.47;1.50;;;45.10;24.90;;;;;;5053032;28;20033;-68
2023/06/16 10:27:18;;;;;;;2.78;1.50;;;45.60;23.80;;;;;;5025327;28;20101;-68
2023/06/16 10:29:46;;;;;;;2.78;1.50;;;45.50;23.70;;;;;;5047364;28;20075;-68
2023/06/16 10:32:12;;;;;;;2.40;1.88;;;44.10;22.60;;;;;;5046278;28;20111;-68
2023/06/16 10:34:49;;;;;;;2.65;1.55;;;43.80;25.90;;;;;;5046702;28;20388;-68
2023/06/16 10:37:16;;;;;;;2.97;1.55;;;44.20;25.00;;;;;;5041796;28;20434;-68
2023/06/16 10:39:56;;;;;;;1.90;1.55;;;44.60;25.70;;;;;;5048724;28;20102;-67
2023/06/16 10:42:21;;;;;;;2.05;1.48;;;44.40;25.20;;;;;;5030092;28;20041;-68
2023/06/16 10:44:47;;;;;;;3.42;1.70;;;44.50;24.10;;;;;;5042898;28;20050;-67
2023/06/16 10:47:12;;;;;;;3.63;1.50;;;44.90;23.80;;;;;;5052865;28;20024;-68
2023/06/16 10:49:57;;;;;;;2.03;1.55;;;44.30;26.30;;;;;;5057740;28;20051;-67
2023/06/16 10:52:28;;;;;;;2.92;1.50;;;44.70;25.00;;;;;;5056141;28;20055;-68
2023/06/16 10:54:58;;;;;;;3.35;1.40;;;44.50;23.20;;;;;;5054784;28;20024;-68
2023/06/16 10:57:25;;;;;;;;;;;43.90;24.00;;;;;;5054683;28;20123;-68
2023/06/16 11:00:06;;;;;;;1.83;1.30;;;44.00;23.30;;;;;;5054618;28;19923;-68
2023/06/16 11:02:34;;;;;;;4.90;1.55;;;44.70;23.30;;;;;;5058339;28;20039;-67
2023/06/16 11:05:10;;;;;;;2.90;1.60;;;44.70;23.70;;;;;;5058584;28;20127;-67
2023/06/16 11:07:43;;;;;;;3.38;1.50;;;44.70;24.10;;;;;;5047915;28;20031;-68
2023/06/16 11:10:10;;;;;;;2.08;1.48;;;43.20;23.40;;;;;;5038661;28;20052;-68
2023/06/16 11:12:37;;;;;;;1.80;1.40;;;42.30;23.40;;;;;;5044962;28;20032;-68
2023/06/16 11:15:06;;;;;;;3.00;1.35;;;43.30;25.50;;;;;;5053335;28;20025;-68
2023/06/16 11:17:33;;;;;;;2.80;1.40;;;43.90;25.00;;;;;;5055358;28;20040;-68
2023/06/16 11:20:01;;;;;;;4.50;1.60;;;44.50;23.80;;;;;;5037933;28;20029;-68
2023/06/16 11:22:38;;;;;;;2.17;1.42;;;44.40;22.40;;;;;;5039651;28;20037;-68
2023/06/16 11:25:05;;;;;;;4.25;1.58;;;44.20;24.80;;;;;;4685584;28;10000024;-68
2023/06/16 11:27:31;;;;;;;2.08;1.30;;;43.70;25.00;;;;;;5049185;28;20060;-68
2023/06/16 11:29:59;;;;;;;5.70;1.95;;;42.00;24.00;;;;;;5049114;28;20516;-68
2023/06/16 11:32:26;;;;;;;2.90;1.55;;;39.90;26.10;;;;;;5044535;28;20574;-68
2023/06/16 11:34:55;;;;;;;3.67;1.80;;;38.40;27.30;;;;;;5043992;28;21975;-68
2023/06/16 11:37:22;;;;;;;5.13;2.10;;;37.40;28.30;;;;;;5045871;28;20629;-68
2023/06/16 11:39:48;;;;;;;2.33;1.55;;;36.00;29.50;;;;;;5047393;28;20111;-68
2023/06/16 11:42:14;;;;;;;2.78;1.73;;;35.20;29.40;;;;;;5047727;28;20032;-68
2023/06/16 11:44:40;;;;;;;3.53;1.73;;;34.30;32.40;;;;;;5054084;28;20040;-68
2023/06/16 11:47:06;;;;;;;2.92;2.00;;;34.00;31.50;;;;;;5055651;28;20033;-68
2023/06/16 11:49:36;;;;;;;4.97;1.95;;;34.00;31.70;;;;;;5038096;28;20025;-68
2023/06/16 11:52:06;;;;;;;3.05;1.75;;;34.10;30.40;;;;;;5055951;28;20115;-68
2023/06/16 11:54:32;;;;;;;;;;;34.10;34.90;;;;;;5033379;28;20040;-69
2023/06/16 11:56:59;;;;;;;3.22;1.90;;;33.80;28.90;;;;;;5050661;28;20882;-68
2023/06/16 11:59:28;;;;;;;4.35;1.90;;;33.80;33.00;;;;;;5052800;28;20029;-69
2023/06/16 12:02:00;;;;;;;3.00;1.92;;;33.90;31.80;;;;;;5054783;28;20522;-68
2023/06/16 12:04:27;;;;;;;2.25;1.60;;;33.60;31.30;;;;;;4689050;28;9999866;-69
2023/06/16 12:06:56;;;;;;;2.72;2.00;;;33.20;32.20;;;;;;5054733;28;20155;-68
2023/06/16 12:09:22;;;;;;;3.05;2.08;;;33.30;34.60;;;;;;5037407;28;20908;-68
2023/06/16 12:11:48;;;;;;;2.58;1.70;;;33.00;32.10;;;;;;5035019;28;20550;-69
2023/06/16 12:14:21;;;;;;;2.83;1.80;;;33.40;32.30;;;;;;5052593;28;20459;-68
2023/06/16 12:16:51;;;;;;;2.15;1.88;;;33.40;32.20;;;;;;5053420;28;20032;-68
2023/06/16 12:19:21;;;;;;;3.53;1.90;;;33.10;30.10;;;;;;5036330;28;21077;-67
2023/06/16 12:22:00;;;;;;;3.15;1.88;;;33.30;32.00;;;;;;5043568;28;20123;-67
2023/06/16 12:24:26;;;;;;;2.88;1.88;;;33.40;31.60;;;;;;5052238;28;20343;-67
2023/06/16 12:26:52;;;;;;;5.25;1.92;;;33.20;29.70;;;;;;5052495;28;20030;-68
2023/06/16 12:29:18;;;;;;;2.88;1.80;;;33.40;34.00;;;;;;5052817;28;20024;-67
2023/06/16 12:31:52;;;;;;;4.70;2.10;;;33.50;32.80;;;;;;5035991;28;20059;-67
2023/06/16 12:34:38;;;;;;;4.90;1.90;;;32.90;32.10;;;;;;5053707;28;20321;-67
2023/06/16 12:37:07;;;;;;;3.22;1.65;;;32.80;35.40;;;;;;5054144;28;20566;-67
2023/06/16 12:39:34;;;;;;;3.08;2.00;;;33.10;33.70;;;;;;5051763;28;20033;-67
2023/06/16 12:42:06;;;;;;;3.88;2.05;;;33.20;33.90;;;;;;5055413;28;20137;-67
2023/06/16 12:44:52;;;;;;;2.58;1.65;;;33.40;32.10;;;;;;5036914;28;20377;-67
2023/06/16 12:47:22;;;;;;;3.15;1.80;;;33.40;29.40;;;;;;5055989;28;20032;-67